sensor_id;sensor_type;location;lat;lon;timestamp;P1;durP1;ratioP1;P2;durP2;ratioP2
56401;SDS011;42299;35.160;26.100;2022-09-21T00:01:02;6.32;;;2.45;;
56401;SDS011;42299;35.160;26.100;2022-09-21T00:02:24;4.85;;;2.38;;
56401;SDS011;42299;35.160;26.100;2022-09-21T00:03:52;5.53;;;2.97;;
56401;SDS011;42299;35.160;26.100;2022-09-21T00:05:15;6.22;;;2.28;;
56401;SDS011;42299;35.160;26.100;2022-09-21T00:06:38;7.72;;;2.88;;
56401;SDS011;42299;35.160;26.100;2022-09-21T00:08:01;4.95;;;2.22;;
56401;SDS011;42299;35.160;26.100;2022-09-21T00:09:23;6.85;;;2.78;;
56401;SDS011;42299;35.160;26.100;2022-09-21T00:10:48;7.10;;;2.72;;
56401;SDS011;42299;35.160;26.100;2022-09-21T00:12:09;6.25;;;2.42;;
56401;SDS011;42299;35.160;26.100;2022-09-21T00:13:32;6.80;;;2.60;;
56401;SDS011;42299;35.160;26.100;2022-09-21T00:14:57;4.88;;;2.42;;
56401;SDS011;42299;35.160;26.100;2022-09-21T00:16:20;6.78;;;3.10;;
56401;SDS011;42299;35.160;26.100;2022-09-21T00:17:43;5.63;;;2.55;;
56401;SDS011;42299;35.160;26.100;2022-09-21T00:19:08;5.60;;;2.45;;
56401;SDS011;42299;35.160;26.100;2022-09-21T00:20:31;5.88;;;2.80;;
56401;SDS011;42299;35.160;26.100;2022-09-21T00:21:54;4.43;;;2.75;;
56401;SDS011;42299;35.160;26.100;2022-09-21T00:23:17;5.72;;;3.38;;
56401;SDS011;42299;35.160;26.100;2022-09-21T00:24:39;4.93;;;2.65;;
56401;SDS011;42299;35.160;26.100;2022-09-21T00:26:05;6.93;;;2.88;;
56401;SDS011;42299;35.160;26.100;2022-09-21T00:27:28;4.30;;;2.63;;
56401;SDS011;42299;35.160;26.100;2022-09-21T00:28:51;9.07;;;2.60;;
56401;SDS011;42299;35.160;26.100;2022-09-21T00:30:15;7.97;;;2.97;;
56401;SDS011;42299;35.160;26.100;2022-09-21T00:31:36;5.07;;;3.17;;
56401;SDS011;42299;35.160;26.100;2022-09-21T00:32:59;6.30;;;3.08;;
56401;SDS011;42299;35.160;26.100;2022-09-21T00:34:22;6.25;;;2.80;;
56401;SDS011;42299;35.160;26.100;2022-09-21T00:35:44;5.97;;;2.78;;
56401;SDS011;42299;35.160;26.100;2022-09-21T00:38:29;5.22;;;2.92;;
56401;SDS011;42299;35.160;26.100;2022-09-21T00:39:50;5.93;;;2.70;;
56401;SDS011;42299;35.160;26.100;2022-09-21T00:41:13;5.93;;;3.28;;
56401;SDS011;42299;35.160;26.100;2022-09-21T00:42:34;7.10;;;2.60;;
56401;SDS011;42299;35.160;26.100;2022-09-21T00:45:44;5.88;;;2.53;;
56401;SDS011;42299;35.160;26.100;2022-09-21T00:47:11;6.53;;;3.17;;
56401;SDS011;42299;35.160;26.100;2022-09-21T00:48:34;6.72;;;2.85;;
56401;SDS011;42299;35.160;26.100;2022-09-21T00:49:59;9.38;;;2.85;;
56401;SDS011;42299;35.160;26.100;2022-09-21T00:51:24;5.93;;;2.47;;
56401;SDS011;42299;35.160;26.100;2022-09-21T00:52:48;5.63;;;3.10;;
56401;SDS011;42299;35.160;26.100;2022-09-21T00:54:12;6.60;;;2.95;;
56401;SDS011;42299;35.160;26.100;2022-09-21T00:55:39;9.45;;;3.45;;
56401;SDS011;42299;35.160;26.100;2022-09-21T00:57:03;4.85;;;2.50;;
56401;SDS011;42299;35.160;26.100;2022-09-21T00:58:27;5.80;;;2.75;;
56401;SDS011;42299;35.160;26.100;2022-09-21T00:59:54;5.47;;;3.17;;
56401;SDS011;42299;35.160;26.100;2022-09-21T01:01:18;6.40;;;2.67;;
56401;SDS011;42299;35.160;26.100;2022-09-21T01:02:41;6.60;;;2.65;;
56401;SDS011;42299;35.160;26.100;2022-09-21T01:04:03;8.02;;;3.03;;
56401;SDS011;42299;35.160;26.100;2022-09-21T01:05:29;8.20;;;2.90;;
56401;SDS011;42299;35.160;26.100;2022-09-21T01:06:51;6.07;;;2.70;;
56401;SDS011;42299;35.160;26.100;2022-09-21T01:08:13;5.18;;;2.65;;
56401;SDS011;42299;35.160;26.100;2022-09-21T01:09:37;5.80;;;3.00;;
56401;SDS011;42299;35.160;26.100;2022-09-21T01:11:07;9.95;;;3.15;;
56401;SDS011;42299;35.160;26.100;2022-09-21T01:12:46;4.82;;;3.10;;
56401;SDS011;42299;35.160;26.100;2022-09-21T01:16:21;6.03;;;3.13;;
56401;SDS011;42299;35.160;26.100;2022-09-21T01:17:56;8.23;;;2.92;;
56401;SDS011;42299;35.160;26.100;2022-09-21T01:19:28;5.47;;;2.60;;
56401;SDS011;42299;35.160;26.100;2022-09-21T01:21:16;6.40;;;2.70;;
56401;SDS011;42299;35.160;26.100;2022-09-21T01:22:44;5.35;;;2.80;;
56401;SDS011;42299;35.160;26.100;2022-09-21T01:24:20;6.10;;;2.83;;
56401;SDS011;42299;35.160;26.100;2022-09-21T01:26:02;4.85;;;3.20;;
56401;SDS011;42299;35.160;26.100;2022-09-21T01:30:47;4.93;;;2.78;;
56401;SDS011;42299;35.160;26.100;2022-09-21T01:32:13;8.73;;;3.70;;
56401;SDS011;42299;35.160;26.100;2022-09-21T01:33:41;6.10;;;2.55;;
56401;SDS011;42299;35.160;26.100;2022-09-21T01:35:07;5.68;;;3.10;;
56401;SDS011;42299;35.160;26.100;2022-09-21T01:36:34;5.32;;;3.10;;
56401;SDS011;42299;35.160;26.100;2022-09-21T01:37:59;7.20;;;3.28;;
56401;SDS011;42299;35.160;26.100;2022-09-21T01:39:24;5.93;;;3.05;;
56401;SDS011;42299;35.160;26.100;2022-09-21T01:40:49;7.35;;;3.22;;
56401;SDS011;42299;35.160;26.100;2022-09-21T01:42:16;5.65;;;2.92;;
56401;SDS011;42299;35.160;26.100;2022-09-21T01:43:41;6.15;;;2.70;;
56401;SDS011;42299;35.160;26.100;2022-09-21T01:45:09;5.38;;;2.78;;
56401;SDS011;42299;35.160;26.100;2022-09-21T01:46:31;6.65;;;2.83;;
56401;SDS011;42299;35.160;26.100;2022-09-21T01:47:56;5.13;;;2.83;;
56401;SDS011;42299;35.160;26.100;2022-09-21T01:49:22;7.53;;;2.92;;
56401;SDS011;42299;35.160;26.100;2022-09-21T01:50:49;5.80;;;2.92;;
56401;SDS011;42299;35.160;26.100;2022-09-21T01:52:16;5.97;;;3.05;;
56401;SDS011;42299;35.160;26.100;2022-09-21T01:53:41;4.10;;;2.60;;
56401;SDS011;42299;35.160;26.100;2022-09-21T01:55:09;4.40;;;2.70;;
56401;SDS011;42299;35.160;26.100;2022-09-21T01:56:34;5.35;;;3.42;;
56401;SDS011;42299;35.160;26.100;2022-09-21T01:58:00;5.30;;;2.90;;
56401;SDS011;42299;35.160;26.100;2022-09-21T01:59:29;7.78;;;3.42;;
56401;SDS011;42299;35.160;26.100;2022-09-21T02:01:03;7.63;;;2.90;;
56401;SDS011;42299;35.160;26.100;2022-09-21T02:02:30;10.27;;;3.30;;
56401;SDS011;42299;35.160;26.100;2022-09-21T02:03:58;7.35;;;3.30;;
56401;SDS011;42299;35.160;26.100;2022-09-21T02:05:27;8.38;;;3.50;;
56401;SDS011;42299;35.160;26.100;2022-09-21T02:06:50;6.22;;;2.95;;
56401;SDS011;42299;35.160;26.100;2022-09-21T02:08:12;6.60;;;3.45;;
56401;SDS011;42299;35.160;26.100;2022-09-21T02:09:35;6.57;;;3.17;;
56401;SDS011;42299;35.160;26.100;2022-09-21T02:10:58;8.13;;;3.30;;
56401;SDS011;42299;35.160;26.100;2022-09-21T02:12:22;7.25;;;2.85;;
56401;SDS011;42299;35.160;26.100;2022-09-21T02:13:45;7.32;;;3.90;;
56401;SDS011;42299;35.160;26.100;2022-09-21T02:15:10;5.28;;;3.05;;
56401;SDS011;42299;35.160;26.100;2022-09-21T02:16:35;6.82;;;3.05;;
56401;SDS011;42299;35.160;26.100;2022-09-21T02:18:00;7.03;;;3.13;;
56401;SDS011;42299;35.160;26.100;2022-09-21T02:19:28;4.97;;;2.80;;
56401;SDS011;42299;35.160;26.100;2022-09-21T02:20:57;4.82;;;2.80;;
56401;SDS011;42299;35.160;26.100;2022-09-21T02:22:25;8.80;;;3.03;;
56401;SDS011;42299;35.160;26.100;2022-09-21T02:23:56;8.77;;;3.50;;
56401;SDS011;42299;35.160;26.100;2022-09-21T02:25:28;6.75;;;3.03;;
56401;SDS011;42299;35.160;26.100;2022-09-21T02:27:02;6.30;;;3.13;;
56401;SDS011;42299;35.160;26.100;2022-09-21T02:28:27;6.82;;;3.13;;
56401;SDS011;42299;35.160;26.100;2022-09-21T02:30:00;4.78;;;2.75;;
56401;SDS011;42299;35.160;26.100;2022-09-21T02:31:29;11.07;;;4.18;;
56401;SDS011;42299;35.160;26.100;2022-09-21T02:32:58;6.20;;;3.17;;
56401;SDS011;42299;35.160;26.100;2022-09-21T02:34:27;7.07;;;3.22;;
56401;SDS011;42299;35.160;26.100;2022-09-21T02:35:54;5.80;;;3.42;;
56401;SDS011;42299;35.160;26.100;2022-09-21T02:37:27;7.20;;;3.15;;
56401;SDS011;42299;35.160;26.100;2022-09-21T02:38:59;5.13;;;3.05;;
56401;SDS011;42299;35.160;26.100;2022-09-21T02:40:26;7.05;;;3.13;;
56401;SDS011;42299;35.160;26.100;2022-09-21T02:41:54;5.10;;;2.88;;
56401;SDS011;42299;35.160;26.100;2022-09-21T02:43:24;6.70;;;3.15;;
56401;SDS011;42299;35.160;26.100;2022-09-21T02:44:54;5.57;;;2.92;;
56401;SDS011;42299;35.160;26.100;2022-09-21T02:46:22;6.57;;;3.58;;
56401;SDS011;42299;35.160;26.100;2022-09-21T02:47:49;5.43;;;3.05;;
56401;SDS011;42299;35.160;26.100;2022-09-21T02:49:15;5.50;;;3.28;;
56401;SDS011;42299;35.160;26.100;2022-09-21T02:50:43;6.28;;;3.30;;
56401;SDS011;42299;35.160;26.100;2022-09-21T02:52:08;6.53;;;2.88;;
56401;SDS011;42299;35.160;26.100;2022-09-21T02:53:34;5.50;;;3.13;;
56401;SDS011;42299;35.160;26.100;2022-09-21T02:54:59;6.68;;;3.20;;
56401;SDS011;42299;35.160;26.100;2022-09-21T02:56:23;6.55;;;3.47;;
56401;SDS011;42299;35.160;26.100;2022-09-21T02:57:47;7.78;;;3.42;;
56401;SDS011;42299;35.160;26.100;2022-09-21T02:59:11;5.63;;;2.92;;
56401;SDS011;42299;35.160;26.100;2022-09-21T03:00:36;8.85;;;3.17;;
56401;SDS011;42299;35.160;26.100;2022-09-21T03:03:21;10.48;;;3.53;;
56401;SDS011;42299;35.160;26.100;2022-09-21T03:04:46;9.32;;;3.20;;
56401;SDS011;42299;35.160;26.100;2022-09-21T03:06:09;8.57;;;3.25;;
56401;SDS011;42299;35.160;26.100;2022-09-21T03:07:30;6.78;;;3.35;;
56401;SDS011;42299;35.160;26.100;2022-09-21T03:08:53;5.63;;;2.83;;
56401;SDS011;42299;35.160;26.100;2022-09-21T03:10:17;5.88;;;3.42;;
56401;SDS011;42299;35.160;26.100;2022-09-21T03:11:40;9.13;;;4.07;;
56401;SDS011;42299;35.160;26.100;2022-09-21T03:13:03;6.00;;;2.92;;
56401;SDS011;42299;35.160;26.100;2022-09-21T03:14:24;7.47;;;3.05;;
56401;SDS011;42299;35.160;26.100;2022-09-21T03:15:47;5.10;;;2.80;;
56401;SDS011;42299;35.160;26.100;2022-09-21T03:17:08;7.95;;;3.20;;
56401;SDS011;42299;35.160;26.100;2022-09-21T03:18:31;6.43;;;3.25;;
56401;SDS011;42299;35.160;26.100;2022-09-21T03:19:55;5.57;;;3.00;;
56401;SDS011;42299;35.160;26.100;2022-09-21T03:21:18;5.53;;;2.92;;
56401;SDS011;42299;35.160;26.100;2022-09-21T03:22:39;5.15;;;3.03;;
56401;SDS011;42299;35.160;26.100;2022-09-21T03:24:02;7.35;;;3.28;;
56401;SDS011;42299;35.160;26.100;2022-09-21T03:25:23;5.25;;;3.13;;
56401;SDS011;42299;35.160;26.100;2022-09-21T03:26:46;9.02;;;3.25;;
56401;SDS011;42299;35.160;26.100;2022-09-21T03:28:08;6.80;;;3.15;;
56401;SDS011;42299;35.160;26.100;2022-09-21T03:29:32;9.10;;;3.30;;
56401;SDS011;42299;35.160;26.100;2022-09-21T03:30:54;5.45;;;3.13;;
56401;SDS011;42299;35.160;26.100;2022-09-21T03:32:17;6.80;;;3.50;;
56401;SDS011;42299;35.160;26.100;2022-09-21T03:33:38;6.72;;;3.13;;
56401;SDS011;42299;35.160;26.100;2022-09-21T03:35:02;5.85;;;3.03;;
56401;SDS011;42299;35.160;26.100;2022-09-21T03:36:24;7.72;;;3.22;;
56401;SDS011;42299;35.160;26.100;2022-09-21T03:37:47;6.30;;;3.47;;
56401;SDS011;42299;35.160;26.100;2022-09-21T03:39:09;7.93;;;3.33;;
56401;SDS011;42299;35.160;26.100;2022-09-21T03:40:32;8.38;;;3.33;;
56401;SDS011;42299;35.160;26.100;2022-09-21T03:41:53;9.13;;;3.15;;
56401;SDS011;42299;35.160;26.100;2022-09-21T03:43:17;5.40;;;3.40;;
56401;SDS011;42299;35.160;26.100;2022-09-21T03:44:40;7.57;;;3.33;;
56401;SDS011;42299;35.160;26.100;2022-09-21T03:46:03;11.18;;;3.50;;
56401;SDS011;42299;35.160;26.100;2022-09-21T03:47:24;5.72;;;3.35;;
56401;SDS011;42299;35.160;26.100;2022-09-21T03:48:48;6.60;;;3.20;;
56401;SDS011;42299;35.160;26.100;2022-09-21T03:50:12;6.47;;;3.15;;
56401;SDS011;42299;35.160;26.100;2022-09-21T03:51:34;6.50;;;3.28;;
56401;SDS011;42299;35.160;26.100;2022-09-21T03:52:58;7.38;;;3.88;;
56401;SDS011;42299;35.160;26.100;2022-09-21T03:54:21;6.72;;;3.30;;
56401;SDS011;42299;35.160;26.100;2022-09-21T03:55:43;8.50;;;3.53;;
56401;SDS011;42299;35.160;26.100;2022-09-21T03:57:06;6.15;;;3.00;;
56401;SDS011;42299;35.160;26.100;2022-09-21T03:58:28;6.80;;;2.92;;
56401;SDS011;42299;35.160;26.100;2022-09-21T03:59:51;9.88;;;2.97;;
56401;SDS011;42299;35.160;26.100;2022-09-21T04:01:14;6.75;;;3.42;;
56401;SDS011;42299;35.160;26.100;2022-09-21T04:02:36;5.95;;;3.13;;
56401;SDS011;42299;35.160;26.100;2022-09-21T04:03:59;4.35;;;2.92;;
56401;SDS011;42299;35.160;26.100;2022-09-21T04:05:23;6.10;;;3.47;;
56401;SDS011;42299;35.160;26.100;2022-09-21T04:06:47;5.70;;;2.95;;
56401;SDS011;42299;35.160;26.100;2022-09-21T04:08:08;7.47;;;2.97;;
56401;SDS011;42299;35.160;26.100;2022-09-21T04:09:31;7.00;;;3.55;;
56401;SDS011;42299;35.160;26.100;2022-09-21T04:10:52;8.40;;;3.50;;
56401;SDS011;42299;35.160;26.100;2022-09-21T04:12:15;7.55;;;3.67;;
56401;SDS011;42299;35.160;26.100;2022-09-21T04:13:39;8.48;;;3.05;;
56401;SDS011;42299;35.160;26.100;2022-09-21T04:15:02;8.07;;;3.20;;
56401;SDS011;42299;35.160;26.100;2022-09-21T04:16:26;5.82;;;2.80;;
56401;SDS011;42299;35.160;26.100;2022-09-21T04:17:49;4.57;;;3.03;;
56401;SDS011;42299;35.160;26.100;2022-09-21T04:19:12;5.93;;;3.50;;
56401;SDS011;42299;35.160;26.100;2022-09-21T04:20:37;6.18;;;3.03;;
56401;SDS011;42299;35.160;26.100;2022-09-21T04:22:00;7.45;;;3.45;;
56401;SDS011;42299;35.160;26.100;2022-09-21T04:23:23;6.50;;;3.45;;
56401;SDS011;42299;35.160;26.100;2022-09-21T04:24:45;6.07;;;3.05;;
56401;SDS011;42299;35.160;26.100;2022-09-21T04:26:15;4.63;;;3.20;;
56401;SDS011;42299;35.160;26.100;2022-09-21T04:27:41;7.82;;;3.25;;
56401;SDS011;42299;35.160;26.100;2022-09-21T04:29:03;7.15;;;3.50;;
56401;SDS011;42299;35.160;26.100;2022-09-21T04:30:26;5.47;;;3.20;;
56401;SDS011;42299;35.160;26.100;2022-09-21T04:31:49;5.82;;;2.95;;
56401;SDS011;42299;35.160;26.100;2022-09-21T04:33:11;6.90;;;3.30;;
56401;SDS011;42299;35.160;26.100;2022-09-21T04:34:34;5.88;;;2.92;;
56401;SDS011;42299;35.160;26.100;2022-09-21T04:36:00;11.25;;;3.67;;
56401;SDS011;42299;35.160;26.100;2022-09-21T04:37:23;6.68;;;3.95;;
56401;SDS011;42299;35.160;26.100;2022-09-21T04:38:45;8.05;;;3.30;;
56401;SDS011;42299;35.160;26.100;2022-09-21T04:40:08;5.53;;;2.83;;
56401;SDS011;42299;35.160;26.100;2022-09-21T04:41:31;8.18;;;3.42;;
56401;SDS011;42299;35.160;26.100;2022-09-21T04:42:52;9.20;;;3.70;;
56401;SDS011;42299;35.160;26.100;2022-09-21T04:44:15;7.60;;;2.92;;
56401;SDS011;42299;35.160;26.100;2022-09-21T04:45:39;4.70;;;3.38;;
56401;SDS011;42299;35.160;26.100;2022-09-21T04:47:02;4.53;;;2.78;;
56401;SDS011;42299;35.160;26.100;2022-09-21T04:48:24;5.00;;;3.00;;
56401;SDS011;42299;35.160;26.100;2022-09-21T04:49:47;5.70;;;3.13;;
56401;SDS011;42299;35.160;26.100;2022-09-21T04:51:11;8.43;;;3.30;;
56401;SDS011;42299;35.160;26.100;2022-09-21T04:52:34;4.90;;;3.10;;
56401;SDS011;42299;35.160;26.100;2022-09-21T04:53:57;6.20;;;3.00;;
56401;SDS011;42299;35.160;26.100;2022-09-21T04:55:20;8.13;;;3.15;;
56401;SDS011;42299;35.160;26.100;2022-09-21T04:56:42;7.47;;;3.22;;
56401;SDS011;42299;35.160;26.100;2022-09-21T04:58:04;6.32;;;3.10;;
56401;SDS011;42299;35.160;26.100;2022-09-21T04:59:27;10.23;;;2.97;;
56401;SDS011;42299;35.160;26.100;2022-09-21T05:00:50;7.63;;;2.63;;
56401;SDS011;42299;35.160;26.100;2022-09-21T05:02:13;7.35;;;3.30;;
56401;SDS011;42299;35.160;26.100;2022-09-21T05:03:35;7.80;;;3.05;;
56401;SDS011;42299;35.160;26.100;2022-09-21T05:04:57;4.78;;;2.65;;
56401;SDS011;42299;35.160;26.100;2022-09-21T05:06:21;7.53;;;2.88;;
56401;SDS011;42299;35.160;26.100;2022-09-21T05:07:42;5.65;;;2.35;;
56401;SDS011;42299;35.160;26.100;2022-09-21T05:09:05;7.40;;;2.83;;
56401;SDS011;42299;35.160;26.100;2022-09-21T05:10:44;7.20;;;2.58;;
56401;SDS011;42299;35.160;26.100;2022-09-21T05:12:06;5.40;;;2.40;;
56401;SDS011;42299;35.160;26.100;2022-09-21T05:13:29;5.95;;;2.45;;
56401;SDS011;42299;35.160;26.100;2022-09-21T05:14:50;4.97;;;2.35;;
56401;SDS011;42299;35.160;26.100;2022-09-21T05:16:15;6.95;;;2.35;;
56401;SDS011;42299;35.160;26.100;2022-09-21T05:17:39;6.18;;;1.90;;
56401;SDS011;42299;35.160;26.100;2022-09-21T05:19:02;6.13;;;2.30;;
56401;SDS011;42299;35.160;26.100;2022-09-21T05:21:47;6.63;;;2.30;;
56401;SDS011;42299;35.160;26.100;2022-09-21T05:23:09;6.35;;;2.40;;
56401;SDS011;42299;35.160;26.100;2022-09-21T05:24:32;6.63;;;2.20;;
56401;SDS011;42299;35.160;26.100;2022-09-21T05:25:54;5.72;;;1.90;;
56401;SDS011;42299;35.160;26.100;2022-09-21T05:27:17;4.88;;;1.98;;
56401;SDS011;42299;35.160;26.100;2022-09-21T05:28:40;3.70;;;2.00;;
56401;SDS011;42299;35.160;26.100;2022-09-21T05:31:27;4.75;;;2.30;;
56401;SDS011;42299;35.160;26.100;2022-09-21T05:32:58;5.20;;;1.83;;
56401;SDS011;42299;35.160;26.100;2022-09-21T05:34:28;5.43;;;1.85;;
56401;SDS011;42299;35.160;26.100;2022-09-21T05:36:08;5.70;;;1.90;;
56401;SDS011;42299;35.160;26.100;2022-09-21T05:37:49;4.10;;;1.85;;
56401;SDS011;42299;35.160;26.100;2022-09-21T05:39:18;4.55;;;1.83;;
56401;SDS011;42299;35.160;26.100;2022-09-21T05:42:02;4.80;;;1.90;;
56401;SDS011;42299;35.160;26.100;2022-09-21T05:43:26;4.43;;;1.60;;
56401;SDS011;42299;35.160;26.100;2022-09-21T05:44:49;3.05;;;1.70;;
56401;SDS011;42299;35.160;26.100;2022-09-21T05:46:14;3.42;;;1.50;;
56401;SDS011;42299;35.160;26.100;2022-09-21T05:47:43;4.85;;;1.75;;
56401;SDS011;42299;35.160;26.100;2022-09-21T05:49:27;4.22;;;1.40;;
56401;SDS011;42299;35.160;26.100;2022-09-21T05:50:58;4.18;;;1.40;;
56401;SDS011;42299;35.160;26.100;2022-09-21T05:52:27;4.68;;;1.70;;
56401;SDS011;42299;35.160;26.100;2022-09-21T05:53:58;4.93;;;1.70;;
56401;SDS011;42299;35.160;26.100;2022-09-21T05:55:30;2.90;;;1.30;;
56401;SDS011;42299;35.160;26.100;2022-09-21T05:57:04;7.07;;;1.92;;
56401;SDS011;42299;35.160;26.100;2022-09-21T05:58:34;4.45;;;1.50;;
56401;SDS011;42299;35.160;26.100;2022-09-21T06:00:03;9.30;;;1.83;;
56401;SDS011;42299;35.160;26.100;2022-09-21T06:01:38;9.18;;;1.85;;
56401;SDS011;42299;35.160;26.100;2022-09-21T06:03:19;5.40;;;1.75;;
56401;SDS011;42299;35.160;26.100;2022-09-21T06:04:48;5.15;;;2.10;;
56401;SDS011;42299;35.160;26.100;2022-09-21T06:06:13;8.07;;;2.03;;
56401;SDS011;42299;35.160;26.100;2022-09-21T06:07:35;3.35;;;1.50;;
56401;SDS011;42299;35.160;26.100;2022-09-21T06:08:58;2.75;;;1.30;;
56401;SDS011;42299;35.160;26.100;2022-09-21T06:10:21;7.72;;;1.90;;
56401;SDS011;42299;35.160;26.100;2022-09-21T06:11:44;9.95;;;1.90;;
56401;SDS011;42299;35.160;26.100;2022-09-21T06:13:07;3.00;;;1.23;;
56401;SDS011;42299;35.160;26.100;2022-09-21T06:14:30;2.40;;;1.13;;
56401;SDS011;42299;35.160;26.100;2022-09-21T06:15:51;6.40;;;1.40;;
56401;SDS011;42299;35.160;26.100;2022-09-21T06:17:13;6.82;;;1.20;;
56401;SDS011;42299;35.160;26.100;2022-09-21T06:18:37;3.08;;;1.30;;
56401;SDS011;42299;35.160;26.100;2022-09-21T06:20:02;4.75;;;1.20;;
56401;SDS011;42299;35.160;26.100;2022-09-21T06:21:23;3.13;;;1.20;;
56401;SDS011;42299;35.160;26.100;2022-09-21T06:22:46;3.00;;;1.20;;
56401;SDS011;42299;35.160;26.100;2022-09-21T06:24:09;3.95;;;1.30;;
56401;SDS011;42299;35.160;26.100;2022-09-21T06:25:32;4.22;;;1.13;;
56401;SDS011;42299;35.160;26.100;2022-09-21T06:26:54;2.65;;;1.10;;
56401;SDS011;42299;35.160;26.100;2022-09-21T06:28:17;5.68;;;1.10;;
56401;SDS011;42299;35.160;26.100;2022-09-21T06:29:39;4.30;;;1.30;;
56401;SDS011;42299;35.160;26.100;2022-09-21T06:31:02;2.80;;;1.10;;
56401;SDS011;42299;35.160;26.100;2022-09-21T06:32:24;2.72;;;1.00;;
56401;SDS011;42299;35.160;26.100;2022-09-21T06:33:47;5.70;;;1.58;;
56401;SDS011;42299;35.160;26.100;2022-09-21T06:35:09;3.58;;;1.20;;
56401;SDS011;42299;35.160;26.100;2022-09-21T06:36:32;5.03;;;1.80;;
56401;SDS011;42299;35.160;26.100;2022-09-21T06:37:56;2.38;;;1.00;;
56401;SDS011;42299;35.160;26.100;2022-09-21T06:39:21;4.38;;;1.25;;
56401;SDS011;42299;35.160;26.100;2022-09-21T06:40:43;2.53;;;1.13;;
56401;SDS011;42299;35.160;26.100;2022-09-21T06:42:06;3.70;;;1.27;;
56401;SDS011;42299;35.160;26.100;2022-09-21T06:43:28;3.83;;;1.25;;
56401;SDS011;42299;35.160;26.100;2022-09-21T06:44:51;2.90;;;1.35;;
56401;SDS011;42299;35.160;26.100;2022-09-21T06:46:15;3.50;;;1.45;;
56401;SDS011;42299;35.160;26.100;2022-09-21T06:47:37;3.35;;;2.22;;
56401;SDS011;42299;35.160;26.100;2022-09-21T06:48:59;3.58;;;1.33;;
56401;SDS011;42299;35.160;26.100;2022-09-21T06:50:22;5.55;;;1.50;;
56401;SDS011;42299;35.160;26.100;2022-09-21T06:51:46;2.85;;;1.48;;
56401;SDS011;42299;35.160;26.100;2022-09-21T06:53:08;4.15;;;1.40;;
56401;SDS011;42299;35.160;26.100;2022-09-21T06:54:32;4.13;;;1.38;;
56401;SDS011;42299;35.160;26.100;2022-09-21T06:55:58;5.25;;;1.40;;
56401;SDS011;42299;35.160;26.100;2022-09-21T06:57:21;4.95;;;1.42;;
56401;SDS011;42299;35.160;26.100;2022-09-21T06:58:44;3.00;;;1.23;;
56401;SDS011;42299;35.160;26.100;2022-09-21T07:00:07;3.80;;;1.33;;
56401;SDS011;42299;35.160;26.100;2022-09-21T07:01:31;3.30;;;1.20;;
56401;SDS011;42299;35.160;26.100;2022-09-21T07:02:53;3.60;;;1.17;;
56401;SDS011;42299;35.160;26.100;2022-09-21T07:04:16;2.75;;;1.13;;
56401;SDS011;42299;35.160;26.100;2022-09-21T07:05:38;6.50;;;1.30;;
56401;SDS011;42299;35.160;26.100;2022-09-21T07:07:00;4.32;;;1.35;;
56401;SDS011;42299;35.160;26.100;2022-09-21T07:08:23;2.33;;;1.02;;
56401;SDS011;42299;35.160;26.100;2022-09-21T07:09:47;7.65;;;1.83;;
56401;SDS011;42299;35.160;26.100;2022-09-21T07:11:09;4.80;;;1.20;;
56401;SDS011;42299;35.160;26.100;2022-09-21T07:12:31;4.18;;;1.25;;
56401;SDS011;42299;35.160;26.100;2022-09-21T07:13:54;3.78;;;1.20;;
56401;SDS011;42299;35.160;26.100;2022-09-21T07:15:17;2.55;;;1.20;;
56401;SDS011;42299;35.160;26.100;2022-09-21T07:16:40;2.58;;;1.00;;
56401;SDS011;42299;35.160;26.100;2022-09-21T07:18:09;2.42;;;1.02;;
56401;SDS011;42299;35.160;26.100;2022-09-21T07:19:32;5.65;;;1.20;;
56401;SDS011;42299;35.160;26.100;2022-09-21T07:20:55;2.40;;;1.13;;
56401;SDS011;42299;35.160;26.100;2022-09-21T07:22:17;4.40;;;1.25;;
56401;SDS011;42299;35.160;26.100;2022-09-21T07:23:39;1.58;;;1.05;;
56401;SDS011;42299;35.160;26.100;2022-09-21T07:25:04;1.88;;;1.10;;
56401;SDS011;42299;35.160;26.100;2022-09-21T07:26:26;4.22;;;1.20;;
56401;SDS011;42299;35.160;26.100;2022-09-21T07:27:49;4.03;;;1.13;;
56401;SDS011;42299;35.160;26.100;2022-09-21T07:29:11;4.20;;;1.60;;
56401;SDS011;42299;35.160;26.100;2022-09-21T07:30:36;5.00;;;1.60;;
56401;SDS011;42299;35.160;26.100;2022-09-21T07:32:00;3.88;;;1.15;;
56401;SDS011;42299;35.160;26.100;2022-09-21T07:33:23;4.53;;;1.10;;
56401;SDS011;42299;35.160;26.100;2022-09-21T07:36:06;2.60;;;1.02;;
56401;SDS011;42299;35.160;26.100;2022-09-21T07:37:38;2.67;;;1.30;;
56401;SDS011;42299;35.160;26.100;2022-09-21T07:38:59;4.43;;;1.30;;
56401;SDS011;42299;35.160;26.100;2022-09-21T07:40:24;7.43;;;1.63;;
56401;SDS011;42299;35.160;26.100;2022-09-21T07:41:46;3.35;;;1.20;;
56401;SDS011;42299;35.160;26.100;2022-09-21T07:43:09;4.63;;;1.27;;
56401;SDS011;42299;35.160;26.100;2022-09-21T07:44:31;2.58;;;1.10;;
56401;SDS011;42299;35.160;26.100;2022-09-21T07:45:54;4.03;;;2.13;;
56401;SDS011;42299;35.160;26.100;2022-09-21T07:47:16;2.97;;;1.30;;
56401;SDS011;42299;35.160;26.100;2022-09-21T07:48:38;3.35;;;1.38;;
56401;SDS011;42299;35.160;26.100;2022-09-21T07:50:00;2.33;;;1.10;;
56401;SDS011;42299;35.160;26.100;2022-09-21T07:51:22;3.80;;;1.50;;
56401;SDS011;42299;35.160;26.100;2022-09-21T07:52:45;4.18;;;1.27;;
56401;SDS011;42299;35.160;26.100;2022-09-21T07:54:08;1.80;;;1.20;;
56401;SDS011;42299;35.160;26.100;2022-09-21T07:55:32;2.95;;;1.00;;
56401;SDS011;42299;35.160;26.100;2022-09-21T07:56:55;3.08;;;1.20;;
56401;SDS011;42299;35.160;26.100;2022-09-21T07:58:35;4.78;;;1.30;;
56401;SDS011;42299;35.160;26.100;2022-09-21T08:00:15;4.93;;;1.33;;
56401;SDS011;42299;35.160;26.100;2022-09-21T08:01:38;4.25;;;1.45;;
56401;SDS011;42299;35.160;26.100;2022-09-21T08:03:01;2.65;;;1.10;;
56401;SDS011;42299;35.160;26.100;2022-09-21T08:04:24;2.40;;;1.10;;
56401;SDS011;42299;35.160;26.100;2022-09-21T08:05:46;3.72;;;1.20;;
56401;SDS011;42299;35.160;26.100;2022-09-21T08:07:09;6.18;;;1.30;;
56401;SDS011;42299;35.160;26.100;2022-09-21T08:08:32;5.35;;;1.08;;
56401;SDS011;42299;35.160;26.100;2022-09-21T08:09:54;5.28;;;1.17;;
56401;SDS011;42299;35.160;26.100;2022-09-21T08:11:20;2.08;;;1.00;;
56401;SDS011;42299;35.160;26.100;2022-09-21T08:12:44;2.45;;;1.08;;
56401;SDS011;42299;35.160;26.100;2022-09-21T08:14:08;2.72;;;1.23;;
56401;SDS011;42299;35.160;26.100;2022-09-21T08:15:38;4.38;;;1.45;;
56401;SDS011;42299;35.160;26.100;2022-09-21T08:17:01;4.25;;;1.20;;
56401;SDS011;42299;35.160;26.100;2022-09-21T08:18:24;2.78;;;1.00;;
56401;SDS011;42299;35.160;26.100;2022-09-21T08:19:47;3.40;;;1.80;;
56401;SDS011;42299;35.160;26.100;2022-09-21T08:21:10;4.63;;;1.00;;
56401;SDS011;42299;35.160;26.100;2022-09-21T08:22:32;2.47;;;1.10;;
56401;SDS011;42299;35.160;26.100;2022-09-21T08:23:55;2.78;;;0.90;;
56401;SDS011;42299;35.160;26.100;2022-09-21T08:25:17;5.63;;;1.20;;
56401;SDS011;42299;35.160;26.100;2022-09-21T08:26:42;5.00;;;1.67;;
56401;SDS011;42299;35.160;26.100;2022-09-21T08:28:05;3.65;;;1.30;;
56401;SDS011;42299;35.160;26.100;2022-09-21T08:29:28;6.97;;;1.27;;
56401;SDS011;42299;35.160;26.100;2022-09-21T08:30:51;3.17;;;1.30;;
56401;SDS011;42299;35.160;26.100;2022-09-21T08:32:13;3.75;;;1.10;;
56401;SDS011;42299;35.160;26.100;2022-09-21T08:33:36;2.22;;;1.42;;
56401;SDS011;42299;35.160;26.100;2022-09-21T08:34:58;3.42;;;1.20;;
56401;SDS011;42299;35.160;26.100;2022-09-21T08:36:21;4.93;;;1.20;;
56401;SDS011;42299;35.160;26.100;2022-09-21T08:37:43;4.30;;;1.20;;